Aviation Digital Data Service (ADDS)

Output produced by METARs form (1217 UTC 22 March 2019)
found at http://www.aviationweather.gov/metar/data/
 
Forecast for: MNMG (MANAGUA/AUGUSTO , NI)
Text: MNMG 220915Z 2212/2312 08012KT 9999 FEW025
Forecast period: 1200 to 2300 UTC 22 March 2019
Forecast type: FROM: standard forecast or significant change
Winds: from the E (80 degrees) at 14 MPH (12 knots; 6.2 m/s)
Visibility: 6 or more miles 10+ km)
Ceiling: at least 12,000 feet AGL
Clouds: few clouds at 2500 feet AGL
Weather: no significant weather forecast for this period
Text: TEMPO 2215/2222 07016G26KT FEW027
Forecast period: 1500 to 2200 UTC 22 March 2019
Forecast type: TEMPORARY: The following changes expected for less than half the time period
Winds: from the ENE (70 degrees) at 18 MPH (16 knots; 8.2 m/s)
gusting to 30 MPH (26 knots; 13.4 m/s)
Visibility: missing
Ceiling: at least 12,000 feet AGL
Clouds: few clouds at 2700 feet AGL
Weather: no significant weather forecast for this period
Text: BECMG 2223/2302 07014KT
Forecast period: 2300 UTC 22 March 2019 to 1200 UTC 23 March 2019
Forecast type: BECOMING: Conditions expected to become as follows by 0200 UTC 23 March 2019
Winds: from the ENE (70 degrees) at 16 MPH (14 knots; 7.2 m/s)
Visibility: 6 or more miles 10+ km)
Ceiling: at least 12,000 feet AGL
Clouds: few clouds at 2500 feet AGL
Weather: no significant weather forecast for this period